Time;durP1;ratioP1;P1;durP2;ratioP2;P2;SDS_P1;SDS_P2;PMS_P1;PMS_P2;Temp;Humidity;BMP_temperature;BMP_pressure;BME280_temperature;BME280_humidity;BME280_pressure;Samples;Min_cycle;Max_cycle;Signal;HPM_P1;HPM_P2
2022/11/23 00:01:27;;;;;;;5.82;1.13;;;7.70;99.90;;;;;;4982141;28;20031;-88
2022/11/23 00:03:53;;;;;;;;;;;7.70;99.90;;;;;;4936815;28;20042;-87
2022/11/23 00:06:26;;;;;;;5.93;0.75;;;7.70;99.90;;;;;;4971921;28;19917;-87
2022/11/23 00:08:52;;;;;;;2.97;1.17;;;7.70;99.90;;;;;;4961763;28;20478;-87
2022/11/23 00:11:18;;;;;;;3.08;0.75;;;7.60;99.90;;;;;;4954264;28;20037;-87
2022/11/23 00:13:44;;;;;;;1.77;0.65;;;7.60;99.90;;;;;;4934742;28;20363;-87
2022/11/23 00:16:28;;;;;;;10.38;1.30;;;7.70;99.90;;;;;;4958786;28;20043;-87
2022/11/23 00:18:56;;;;;;;6.40;1.02;;;7.70;99.90;;;;;;4936309;28;20042;-87
2022/11/23 00:21:23;;;;;;;5.88;0.90;;;7.70;99.90;;;;;;4955927;28;20486;-87
2022/11/23 00:23:51;;;;;;;2.53;0.90;;;7.70;99.90;;;;;;4955220;28;20032;-86
2022/11/23 00:26:17;;;;;;;6.25;0.98;;;7.70;99.90;;;;;;4957170;28;20038;-86
2022/11/23 00:28:42;;;;;;;4.40;1.02;;;7.70;99.90;;;;;;4946700;28;20027;-86
2022/11/23 00:31:09;;;;;;;2.95;0.88;;;7.70;99.90;;;;;;4949183;28;20035;-86
2022/11/23 00:33:44;;;;;;;3.80;0.75;;;7.70;99.90;;;;;;4968948;28;20109;-86
2022/11/23 00:36:11;;;;;;;3.72;1.77;;;7.70;99.90;;;;;;4922114;28;20039;-86
2022/11/23 00:38:40;;;;;;;3.10;0.80;;;7.80;99.90;;;;;;4951965;28;20030;-86
2022/11/23 00:41:07;;;;;;;3.13;0.73;;;7.80;99.90;;;;;;4952322;28;20509;-86
2022/11/23 00:43:33;;;;;;;5.82;1.20;;;7.70;99.90;;;;;;4972457;28;20031;-86
2022/11/23 00:46:25;;;;;;;1.73;0.80;;;7.80;99.90;;;;;;4952303;28;20129;-86
2022/11/23 00:48:52;;;;;;;5.05;0.88;;;7.70;99.90;;;;;;4939440;28;20043;-86
2022/11/23 00:51:23;;;;;;;3.60;0.80;;;7.80;99.90;;;;;;4959030;28;20027;-86
2022/11/23 00:53:49;;;;;;;9.07;1.33;;;7.80;99.90;;;;;;4951646;28;20402;-85
2022/11/23 00:56:15;;;;;;;2.78;0.80;;;7.80;99.90;;;;;;4972430;28;20034;-86
2022/11/23 00:58:50;;;;;;;8.20;1.50;;;7.80;99.90;;;;;;4937588;28;20030;-86
2022/11/23 01:01:17;;;;;;;4.27;1.00;;;7.90;99.90;;;;;;4968523;28;20715;-86
2022/11/23 01:03:47;;;;;;;2.05;0.70;;;7.90;99.90;;;;;;4944668;28;20031;-86
2022/11/23 01:06:16;;;;;;;3.53;0.98;;;7.80;99.90;;;;;;4936782;28;20105;-86
2022/11/23 01:08:42;;;;;;;6.78;1.08;;;7.90;99.90;;;;;;4953842;28;20089;-86
2022/11/23 01:11:09;;;;;;;2.50;0.55;;;7.90;99.90;;;;;;4950854;28;20039;-86
2022/11/23 01:13:36;;;;;;;3.75;1.20;;;7.90;99.90;;;;;;4958102;28;20035;-85
2022/11/23 01:16:02;;;;;;;4.20;1.05;;;7.90;99.90;;;;;;4973598;28;20042;-86
2022/11/23 01:18:27;;;;;;;1.52;0.70;;;7.80;99.90;;;;;;4933424;28;20038;-86
2022/11/23 01:20:53;;;;;;;4.15;0.90;;;7.90;99.90;;;;;;4966795;28;20093;-85
2022/11/23 01:23:18;;;;;;;5.82;0.63;;;7.90;99.90;;;;;;4938479;28;20085;-86
2022/11/23 01:25:44;;;;;;;5.95;0.88;;;7.90;99.90;;;;;;4952088;28;20039;-85
2022/11/23 01:28:10;;;;;;;5.32;0.77;;;7.90;99.90;;;;;;4949632;28;20035;-87
2022/11/23 01:30:35;;;;;;;4.47;1.00;;;7.90;99.90;;;;;;4938895;28;20432;-86
2022/11/23 01:33:02;;;;;;;1.35;0.70;;;7.90;99.90;;;;;;4952056;28;20031;-87
2022/11/23 01:35:28;;;;;;;3.22;0.60;;;8.00;99.90;;;;;;4936067;28;20399;-88
2022/11/23 01:37:53;;;;;;;3.35;0.85;;;8.00;99.90;;;;;;4980708;28;20035;-87
2022/11/23 01:40:26;;;;;;;5.03;1.02;;;8.00;99.90;;;;;;4935299;28;20019;-86
2022/11/23 01:43:09;;;;;;;3.40;0.98;;;8.00;99.90;;;;;;4954483;28;20067;-86
2022/11/23 01:45:36;;;;;;;4.35;0.80;;;8.00;99.90;;;;;;4951780;28;20023;-87
2022/11/23 01:48:03;;;;;;;3.90;0.80;;;8.00;99.90;;;;;;4950279;28;20035;-87
2022/11/23 01:50:29;;;;;;;3.15;0.85;;;8.00;99.90;;;;;;4923087;28;20117;-86
2022/11/23 01:52:55;;;;;;;5.72;0.73;;;7.90;99.90;;;;;;4967708;28;20563;-86
2022/11/23 01:55:21;;;;;;;7.10;0.82;;;8.00;99.90;;;;;;4962230;28;20475;-86
2022/11/23 01:57:46;;;;;;;4.63;1.00;;;8.00;99.90;;;;;;4921106;28;20034;-86
2022/11/23 02:00:12;;;;;;;2.05;0.60;;;8.00;99.90;;;;;;4940674;28;20441;-86
2022/11/23 02:02:46;;;;;;;4.47;0.70;;;8.00;99.90;;;;;;4936616;28;20054;-86
2022/11/23 02:05:13;;;;;;;10.23;1.63;;;8.00;99.90;;;;;;4907320;28;20034;-86
2022/11/23 02:07:41;;;;;;;9.65;1.55;;;8.00;99.90;;;;;;4917970;28;20135;-86
2022/11/23 02:10:07;;;;;;;5.70;1.05;;;8.00;99.90;;;;;;4935359;28;20056;-86
2022/11/23 02:12:33;;;;;;;7.47;1.30;;;7.90;99.90;;;;;;4938695;28;20031;-85
2022/11/23 02:14:58;;;;;;;3.20;0.50;;;7.90;99.90;;;;;;4933126;28;20839;-86
2022/11/23 02:17:24;;;;;;;5.00;0.77;;;7.90;99.90;;;;;;4950191;28;20434;-85
2022/11/23 02:20:01;;;;;;;1.10;0.50;;;8.00;99.90;;;;;;4941382;28;20023;-85
2022/11/23 02:22:45;;;;;;;5.70;1.23;;;7.90;99.90;;;;;;4954405;28;20039;-85
2022/11/23 02:25:43;;;;;;;4.63;0.80;;;7.90;99.90;;;;;;4952536;28;20082;-86
2022/11/23 02:28:11;;;;;;;7.28;1.17;;;8.00;99.90;;;;;;4873213;28;20137;-85
2022/11/23 02:30:36;;;;;;;2.88;0.40;;;8.00;99.90;;;;;;4950042;28;20035;-85
2022/11/23 02:33:05;;;;;;;4.30;1.13;;;8.00;99.90;;;;;;4955222;28;20093;-85
2022/11/23 02:35:31;;;;;;;3.30;0.85;;;8.00;99.90;;;;;;4935840;28;20524;-85
2022/11/23 02:37:57;;;;;;;6.47;1.55;;;8.10;99.90;;;;;;4928769;28;20031;-85
2022/11/23 02:40:27;;;;;;;2.72;1.42;;;8.10;99.90;;;;;;4950439;28;20042;-85
2022/11/23 02:42:52;;;;;;;6.70;1.20;;;8.00;99.90;;;;;;4950393;28;20027;-85
2022/11/23 02:45:40;;;;;;;4.15;1.08;;;8.10;99.90;;;;;;4952733;28;20375;-85
2022/11/23 02:48:06;;;;;;;4.18;1.05;;;8.10;99.90;;;;;;4962967;28;20082;-85
2022/11/23 02:50:38;;;;;;;6.28;0.98;;;8.10;99.90;;;;;;4953781;28;20426;-85
2022/11/23 02:53:04;;;;;;;4.63;1.23;;;8.10;99.90;;;;;;4969894;28;20154;-85
2022/11/23 02:55:29;;;;;;;3.15;0.90;;;8.10;99.90;;;;;;4952026;28;20119;-85
2022/11/23 02:57:55;;;;;;;3.67;1.08;;;8.10;99.90;;;;;;4950604;28;20019;-85
2022/11/23 03:00:21;;;;;;;3.55;0.80;;;8.10;99.90;;;;;;4936367;28;20033;-85
2022/11/23 03:02:46;;;;;;;4.68;1.02;;;8.10;99.90;;;;;;4954444;28;20027;-85
2022/11/23 03:05:12;;;;;;;4.20;0.98;;;8.10;99.90;;;;;;4955979;28;21947;-85
2022/11/23 03:07:37;;;;;;;4.15;0.75;;;8.10;99.90;;;;;;4921654;28;20162;-85
2022/11/23 03:10:03;;;;;;;7.30;0.98;;;8.20;99.90;;;;;;4967558;28;20038;-85
2022/11/23 03:12:29;;;;;;;6.25;0.90;;;8.20;99.90;;;;;;4939337;28;20026;-85
2022/11/23 03:14:54;;;;;;;2.30;0.82;;;8.20;99.90;;;;;;4934542;28;20042;-85
2022/11/23 03:17:20;;;;;;;2.95;0.80;;;8.30;99.90;;;;;;4952378;28;20026;-85
2022/11/23 03:19:45;;;;;;;5.60;1.08;;;8.20;99.90;;;;;;4938686;28;20031;-86
2022/11/23 03:22:11;;;;;;;1.83;0.88;;;8.20;99.90;;;;;;4954808;28;20039;-86
2022/11/23 03:24:37;;;;;;;5.28;0.70;;;8.20;99.90;;;;;;4937499;28;20088;-86
2022/11/23 03:27:03;;;;;;;3.50;0.80;;;8.20;99.90;;;;;;4921029;28;20085;-86
2022/11/23 03:29:28;;;;;;;3.58;1.02;;;8.20;99.90;;;;;;4950817;28;20023;-87
2022/11/23 03:31:54;;;;;;;5.40;1.45;;;8.20;99.90;;;;;;4923379;28;20090;-87
2022/11/23 03:34:20;;;;;;;5.28;1.00;;;8.20;99.90;;;;;;4974345;28;20038;-87
2022/11/23 03:36:45;;;;;;;11.02;2.10;;;8.10;99.90;;;;;;4946530;28;20066;-87
2022/11/23 03:39:11;;;;;;;3.95;1.40;;;8.10;99.90;;;;;;4981290;28;20035;-87
2022/11/23 03:41:44;;;;;;;4.88;1.27;;;8.10;99.90;;;;;;4948705;28;20035;-87
2022/11/23 03:44:09;;;;;;;7.15;1.00;;;8.10;99.90;;;;;;4952456;28;20648;-88
2022/11/23 03:46:35;;;;;;;5.65;1.48;;;8.00;99.90;;;;;;4950342;28;20039;-87
2022/11/23 03:49:00;;;;;;;3.25;1.02;;;8.10;99.90;;;;;;4944295;28;20042;-87
2022/11/23 03:51:26;;;;;;;4.38;1.25;;;8.10;99.90;;;;;;4939077;28;20035;-86
2022/11/23 03:53:51;;;;;;;2.78;1.10;;;8.10;99.90;;;;;;4932913;28;20815;-86
2022/11/23 03:56:17;;;;;;;4.00;1.50;;;8.10;99.90;;;;;;4985918;28;20557;-86
2022/11/23 03:58:43;;;;;;;5.80;1.05;;;8.10;99.90;;;;;;4950553;28;20035;-86
2022/11/23 04:01:08;;;;;;;4.30;1.42;;;8.10;99.90;;;;;;4986930;28;20077;-85
2022/11/23 04:03:34;;;;;;;4.80;1.20;;;8.10;99.90;;;;;;4969843;28;20035;-85
2022/11/23 04:05:59;;;;;;;4.28;1.30;;;8.10;99.90;;;;;;4936783;28;20035;-86
2022/11/23 04:08:32;;;;;;;5.75;1.50;;;8.10;99.90;;;;;;4951297;28;20034;-85
2022/11/23 04:10:57;;;;;;;7.30;1.52;;;8.10;99.90;;;;;;4968290;28;20023;-85
2022/11/23 04:13:23;;;;;;;5.40;1.25;;;7.90;99.90;;;;;;4950379;28;20027;-85
2022/11/23 04:15:49;;;;;;;5.78;1.40;;;8.00;99.90;;;;;;4968737;28;20170;-85
2022/11/23 04:18:14;;;;;;;3.40;1.40;;;8.00;99.90;;;;;;4953929;28;20031;-86
2022/11/23 04:20:46;;;;;;;3.38;1.13;;;8.00;99.90;;;;;;4930705;28;20038;-86
2022/11/23 04:23:11;;;;;;;5.15;1.38;;;8.00;99.90;;;;;;4971011;28;20027;-85
2022/11/23 04:25:46;;;;;;;3.58;1.27;;;8.00;99.90;;;;;;4950539;28;20034;-86
2022/11/23 04:28:11;;;;;;;7.70;1.92;;;8.00;99.90;;;;;;4935551;28;20162;-87
2022/11/23 04:30:43;;;;;;;4.22;1.23;;;8.10;99.90;;;;;;4925986;28;20100;-87
2022/11/23 04:33:09;;;;;;;3.38;1.08;;;8.00;99.90;;;;;;4962709;28;20031;-87
2022/11/23 04:35:35;;;;;;;9.35;2.83;;;8.00;99.90;;;;;;4953873;28;20030;-87
2022/11/23 04:38:01;;;;;;;4.10;1.15;;;8.00;99.90;;;;;;4940460;28;20494;-87
2022/11/23 04:40:27;;;;;;;8.35;1.67;;;8.00;99.90;;;;;;4936784;28;20023;-87
2022/11/23 04:42:53;;;;;;;2.70;0.98;;;7.90;99.90;;;;;;4947368;28;20482;-87
2022/11/23 04:45:23;;;;;;;8.02;1.80;;;8.00;99.90;;;;;;4947609;28;20100;-87
2022/11/23 04:47:49;;;;;;;4.90;2.03;;;8.00;99.90;;;;;;4946639;28;20386;-87
2022/11/23 04:50:15;;;;;;;7.40;1.60;;;8.00;99.90;;;;;;4983803;28;20040;-87
2022/11/23 04:52:43;;;;;;;3.95;1.30;;;8.00;99.90;;;;;;4916377;28;20027;-87
2022/11/23 04:55:09;;;;;;;4.05;0.95;;;7.90;99.90;;;;;;4977221;28;20029;-87
2022/11/23 04:57:42;;;;;;;2.70;1.13;;;7.90;99.90;;;;;;4947281;28;20026;-86
2022/11/23 05:00:08;;;;;;;14.02;1.92;;;8.00;99.90;;;;;;4952669;28;20034;-87
2022/11/23 05:02:34;;;;;;;9.32;1.30;;;7.90;99.90;;;;;;4961964;28;20035;-87
2022/11/23 05:04:59;;;;;;;4.53;1.63;;;8.00;99.90;;;;;;4944410;28;20127;-87
2022/11/23 05:07:25;;;;;;;4.18;1.25;;;8.00;99.90;;;;;;4960541;28;20058;-87
2022/11/23 05:09:50;;;;;;;4.20;1.40;;;8.00;99.90;;;;;;4964727;28;20034;-87
2022/11/23 05:12:16;;;;;;;6.50;2.08;;;8.00;99.90;;;;;;4980179;28;20031;-87
2022/11/23 05:14:42;;;;;;;6.60;1.58;;;7.90;99.90;;;;;;4942723;28;20037;-88
2022/11/23 05:17:07;;;;;;;5.22;1.50;;;7.90;99.90;;;;;;4935231;28;20581;-89
2022/11/23 05:19:33;;;;;;;3.65;1.67;;;7.90;99.90;;;;;;4979440;28;20506;-88
2022/11/23 05:21:58;;;;;;;4.18;1.80;;;8.00;99.90;;;;;;4948742;28;20467;-87
2022/11/23 05:24:24;;;;;;;6.95;1.42;;;8.00;99.90;;;;;;4951526;28;20155;-87
2022/11/23 05:26:49;;;;;;;8.07;1.38;;;8.00;99.90;;;;;;4940928;28;20546;-87
2022/11/23 05:29:15;;;;;;;7.65;1.50;;;7.90;99.90;;;;;;4953853;28;20042;-87
2022/11/23 05:31:40;;;;;;;4.03;1.60;;;7.90;99.90;;;;;;4952563;28;20034;-88
2022/11/23 05:34:06;;;;;;;12.00;2.03;;;7.90;99.90;;;;;;4947983;28;20038;-88
2022/11/23 05:36:32;;;;;;;6.10;2.30;;;7.90;99.90;;;;;;4936620;28;20027;-88
2022/11/23 05:38:58;;;;;;;8.90;1.52;;;7.90;99.90;;;;;;4947674;28;20043;-88
2022/11/23 05:41:23;;;;;;;8.57;1.42;;;7.90;99.90;;;;;;4931793;28;20443;-88
2022/11/23 05:43:49;;;;;;;4.55;1.55;;;7.90;99.90;;;;;;4948938;28;20031;-88
2022/11/23 05:46:15;;;;;;;5.75;1.35;;;7.90;99.90;;;;;;4947468;28;20066;-87
2022/11/23 05:48:46;;;;;;;8.88;2.05;;;7.90;99.90;;;;;;4949354;28;20548;-88
2022/11/23 05:51:12;;;;;;;5.70;1.77;;;7.90;99.90;;;;;;4927340;28;20032;-88
2022/11/23 05:53:43;;;;;;;7.70;1.52;;;7.90;99.90;;;;;;4949030;28;20509;-87
2022/11/23 05:56:08;;;;;;;6.70;1.20;;;7.90;99.90;;;;;;4958269;28;20045;-87
2022/11/23 05:58:34;;;;;;;5.13;1.27;;;7.90;99.90;;;;;;4934786;28;20402;-88
2022/11/23 06:01:00;;;;;;;2.88;1.00;;;7.80;99.90;;;;;;4943354;28;20394;-88
2022/11/23 06:03:26;;;;;;;4.50;0.90;;;7.80;99.90;;;;;;4964861;28;20393;-87
2022/11/23 06:05:52;;;;;;;4.72;1.20;;;7.80;99.90;;;;;;4965543;28;20028;-88
2022/11/23 06:08:23;;;;;;;8.43;1.40;;;7.90;99.90;;;;;;4938119;28;20038;-88
2022/11/23 06:11:00;;;;;;;5.38;1.33;;;7.90;99.90;;;;;;4951527;28;20459;-89
2022/11/23 06:13:26;;;;;;;6.57;1.38;;;7.80;99.90;;;;;;4978796;28;20066;-88
2022/11/23 06:15:51;;;;;;;2.85;0.75;;;7.90;99.90;;;;;;4943470;28;20059;-88
2022/11/23 06:18:19;;;;;;;6.13;1.50;;;7.80;99.90;;;;;;4980012;28;20034;-88
2022/11/23 06:20:45;;;;;;;8.52;1.30;;;7.90;99.90;;;;;;4944819;28;20050;-88
2022/11/23 06:23:10;;;;;;;6.00;1.30;;;7.90;99.90;;;;;;4936106;28;20036;-87
2022/11/23 06:25:37;;;;;;;11.23;2.40;;;7.80;99.90;;;;;;4952527;28;20030;-87
2022/11/23 06:28:03;;;;;;;4.22;1.10;;;7.90;99.90;;;;;;4955396;28;20027;-87
2022/11/23 06:30:29;;;;;;;6.85;1.52;;;7.80;99.90;;;;;;4936301;28;20031;-87
2022/11/23 06:32:55;;;;;;;3.28;0.95;;;7.80;99.90;;;;;;4949003;28;20031;-87
2022/11/23 06:35:21;;;;;;;4.90;1.60;;;7.80;99.90;;;;;;4951813;28;20022;-87
2022/11/23 06:37:53;;;;;;;7.63;1.65;;;7.80;99.90;;;;;;4937002;28;20027;-88
2022/11/23 06:40:19;;;;;;;4.20;1.20;;;7.80;99.90;;;;;;4951193;28;20038;-87
2022/11/23 06:42:47;;;;;;;6.47;1.38;;;7.80;99.90;;;;;;4967397;28;20073;-88
2022/11/23 06:45:18;;;;;;;5.15;1.50;;;7.80;99.90;;;;;;4951866;28;20035;-89
2022/11/23 06:47:44;;;;;;;6.78;1.65;;;7.80;99.90;;;;;;4938311;28;20074;-89
2022/11/23 06:50:09;;;;;;;6.75;1.25;;;7.80;99.90;;;;;;4941792;28;20065;-89
2022/11/23 06:52:35;;;;;;;7.55;1.25;;;7.80;99.90;;;;;;4904900;28;20036;-89
2022/11/23 06:55:01;;;;;;;8.43;1.25;;;7.80;99.90;;;;;;4928180;28;20047;-88
2022/11/23 06:57:26;;;;;;;6.25;1.40;;;7.80;99.90;;;;;;4939681;28;20030;-89
2022/11/23 06:59:55;;;;;;;9.73;1.67;;;7.80;99.90;;;;;;4939274;28;20043;-88
2022/11/23 07:02:21;;;;;;;11.20;1.70;;;7.80;99.90;;;;;;4949341;28;20411;-88
2022/11/23 07:04:49;;;;;;;4.75;1.77;;;7.80;99.90;;;;;;4945974;28;20027;-88
2022/11/23 07:07:14;;;;;;;13.13;1.73;;;7.70;99.90;;;;;;4951790;28;20061;-89
2022/11/23 07:09:46;;;;;;;8.98;1.70;;;7.70;99.90;;;;;;4931270;28;20125;-89
2022/11/23 07:12:12;;;;;;;7.38;1.50;;;7.70;99.90;;;;;;4913210;28;20040;-89
2022/11/23 07:14:39;;;;;;;7.35;1.75;;;7.70;99.90;;;;;;4911782;28;20513;-89
2022/11/23 07:17:10;;;;;;;3.88;1.30;;;7.70;99.90;;;;;;4958855;28;20043;-89
2022/11/23 07:19:36;;;;;;;10.68;1.85;;;7.70;99.90;;;;;;4938992;28;20039;-89
2022/11/23 07:22:01;;;;;;;6.80;1.65;;;7.60;99.90;;;;;;4951281;28;20042;-88
2022/11/23 07:24:27;;;;;;;7.25;1.52;;;7.80;99.90;;;;;;4936127;28;20042;-89
2022/11/23 07:26:52;;;;;;;7.72;1.60;;;7.60;99.90;;;;;;4965169;28;20442;-88
2022/11/23 07:29:36;;;;;;;9.10;1.77;;;7.60;99.90;;;;;;4935642;28;20401;-88
2022/11/23 07:32:09;;;;;;;8.88;1.85;;;7.70;99.90;;;;;;4935960;28;20031;-88
2022/11/23 07:34:35;;;;;;;9.15;2.08;;;7.70;99.90;;;;;;4953232;28;20039;-88
2022/11/23 07:37:41;;;;;;;9.57;2.10;;;7.70;99.90;;;;;;4939526;28;20106;-87
2022/11/23 07:40:27;;;;;;;8.50;1.00;;;7.70;99.90;;;;;;4918304;28;20043;-88
2022/11/23 07:43:03;;;;;;;7.60;1.20;;;7.70;99.90;;;;;;4951636;28;20399;-88
2022/11/23 07:45:29;;;;;;;5.70;0.88;;;7.70;99.90;;;;;;4930349;28;20549;-87
2022/11/23 07:48:05;;;;;;;7.75;1.40;;;7.70;99.90;;;;;;4971960;28;20086;-88
2022/11/23 07:50:31;;;;;;;6.15;1.40;;;7.70;99.90;;;;;;4935519;28;20060;-88
2022/11/23 07:54:01;;;;;;;;;;;;;;;;;;;;;
2022/11/23 07:56:27;;;;;;;4.47;1.10;;;7.80;99.90;;;;;;4935321;28;20448;-87
2022/11/23 07:59:27;;;;;;;3.67;1.15;;;7.80;99.90;;;;;;4937480;28;20447;-87
2022/11/23 08:05:20;;;;;;;4.70;1.20;;;7.80;99.90;;;;;;4948741;28;20034;-87
2022/11/23 08:08:10;;;;;;;5.68;1.10;;;7.90;99.90;;;;;;4940888;28;20489;-87
2022/11/23 08:14:38;;;;;;;7.05;1.23;;;8.00;99.90;;;;;;4955609;28;20041;-87
2022/11/23 08:17:12;;;;;;;6.75;1.25;;;8.10;99.90;;;;;;4962580;28;20035;-87
2022/11/23 08:19:38;;;;;;;8.55;1.20;;;8.20;99.90;;;;;;4905037;28;20125;-87
2022/11/23 08:22:12;;;;;;;8.15;1.10;;;8.20;99.90;;;;;;4954487;28;20031;-87
2022/11/23 08:24:38;;;;;;;7.05;0.98;;;8.20;99.90;;;;;;4941690;28;20087;-87
2022/11/23 08:27:56;;;;;;;9.10;1.42;;;8.20;99.90;;;;;;4945706;28;20060;-87
2022/11/23 08:30:22;;;;;;;5.20;0.50;;;8.20;99.90;;;;;;4944565;28;20555;-86
2022/11/23 08:32:53;;;;;;;4.57;1.15;;;8.40;99.90;;;;;;4913500;28;20031;-89
2022/11/23 08:35:19;;;;;;;4.20;0.75;;;8.40;99.90;;;;;;4935797;28;20042;-87
2022/11/23 08:37:44;;;;;;;11.57;1.33;;;8.50;99.90;;;;;;4946425;28;20526;-87
2022/11/23 08:40:18;;;;;;;9.60;1.67;;;8.60;99.90;;;;;;4966571;28;20038;-86
2022/11/23 08:42:49;;;;;;;2.00;1.20;;;8.70;99.90;;;;;;4940760;28;20063;-86
2022/11/23 08:45:41;;;;;;;5.90;1.35;;;8.70;99.90;;;;;;4925413;28;20031;-87
2022/11/23 08:48:06;;;;;;;4.97;1.52;;;8.70;99.90;;;;;;4956653;28;20046;-86
2022/11/23 08:50:41;;;;;;;10.70;2.00;;;8.80;99.90;;;;;;4966393;28;20395;-87
2022/11/23 08:53:11;;;;;;;11.23;1.55;;;8.70;99.90;;;;;;4925575;28;20059;-86
2022/11/23 08:55:40;;;;;;;8.40;1.33;;;8.70;99.90;;;;;;4935816;28;20039;-86
2022/11/23 08:58:07;;;;;;;9.00;1.90;;;9.00;99.90;;;;;;4944945;28;20059;-85
2022/11/23 09:00:35;;;;;;;4.70;0.80;;;9.00;99.90;;;;;;4963470;28;20522;-87
2022/11/23 09:03:01;;;;;;;5.32;1.38;;;9.10;99.90;;;;;;4944302;28;20458;-86
2022/11/23 09:05:27;;;;;;;8.07;1.50;;;9.10;99.90;;;;;;4973719;28;20119;-88
2022/11/23 09:07:54;;;;;;;6.90;1.20;;;9.20;99.90;;;;;;4954622;28;20035;-86
2022/11/23 09:10:19;;;;;;;6.75;1.42;;;9.40;99.90;;;;;;4923624;28;20066;-86
2022/11/23 09:12:48;;;;;;;8.00;1.30;;;9.40;99.90;;;;;;4949320;28;20030;-87
2022/11/23 09:15:13;;;;;;;3.75;1.30;;;9.50;99.90;;;;;;4951235;28;20490;-87
2022/11/23 09:17:42;;;;;;;9.73;1.55;;;9.50;99.90;;;;;;4934314;28;20034;-87
2022/11/23 09:20:09;;;;;;;3.65;0.77;;;9.60;99.90;;;;;;4933007;28;20050;-87
2022/11/23 09:22:34;;;;;;;6.20;1.17;;;9.70;99.90;;;;;;4947486;28;20035;-88
2022/11/23 09:25:00;;;;;;;6.10;1.10;;;10.00;99.90;;;;;;4933576;28;20541;-89
2022/11/23 09:27:38;;;;;;;4.75;1.15;;;9.90;99.90;;;;;;4935632;28;20078;-89
2022/11/23 09:30:08;;;;;;;7.35;1.48;;;10.20;99.90;;;;;;4918613;28;20124;-88
2022/11/23 09:32:34;;;;;;;8.73;1.55;;;10.20;99.90;;;;;;4948564;28;20065;-88
2022/11/23 09:34:59;;;;;;;15.50;2.10;;;10.20;99.90;;;;;;4963673;28;20054;-87
2022/11/23 09:37:25;;;;;;;8.63;1.60;;;10.00;99.90;;;;;;4931986;28;20129;-87
2022/11/23 09:39:50;;;;;;;3.13;0.80;;;10.20;99.90;;;;;;4964013;28;20035;-87
2022/11/23 09:42:23;;;;;;;6.72;1.02;;;10.30;99.90;;;;;;4918683;28;20848;-88
2022/11/23 09:45:03;;;;;;;8.55;1.73;;;10.60;99.90;;;;;;4952356;28;20403;-88
2022/11/23 09:47:51;;;;;;;11.35;1.27;;;10.70;99.90;;;;;;4934249;28;20043;-88
2022/11/23 09:50:53;;;;;;;11.13;1.70;;;10.70;99.90;;;;;;4974465;28;20385;-88
2022/11/23 09:53:44;;;;;;;8.10;1.02;;;10.70;99.90;;;;;;4961322;28;20027;-89
2022/11/23 09:56:39;;;;;;;9.18;1.33;;;10.90;99.90;;;;;;4921419;28;20024;-90
2022/11/23 09:59:19;;;;;;;2.42;0.73;;;11.00;99.90;;;;;;4963312;28;20030;-89
2022/11/23 10:02:10;;;;;;;;;;;;;;;;;;;;;
2022/11/23 10:04:39;;;;;;;8.38;1.13;;;11.10;99.90;;;;;;4935186;28;20601;-91
2022/11/23 10:07:47;;;;;;;5.03;1.42;;;11.20;99.90;;;;;;4970399;28;20033;-89
2022/11/23 10:10:42;;;;;;;9.52;2.05;;;10.90;99.90;;;;;;4940550;28;20037;-88
2022/11/23 10:13:11;;;;;;;11.98;1.92;;;11.10;99.90;;;;;;4968525;28;20050;-89
2022/11/23 10:16:02;;;;;;;8.23;2.55;;;11.20;99.90;;;;;;4956782;28;20033;-89
2022/11/23 10:18:46;;;;;;;8.00;1.35;;;11.30;99.90;;;;;;4944504;28;20057;-87
2022/11/23 10:23:02;;;;;;;3.92;1.48;;;11.40;99.90;;;;;;5067880;28;20396;-88
2022/11/23 10:25:42;;;;;;;6.20;1.33;;;11.40;99.90;;;;;;5016818;28;20370;-89
2022/11/23 10:28:19;;;;;;;7.20;1.38;;;11.60;99.90;;;;;;5011679;28;20508;-89
2022/11/23 10:30:52;;;;;;;11.90;1.80;;;11.70;99.90;;;;;;5006142;28;20107;-82
2022/11/23 10:33:27;;;;;;;6.68;1.38;;;11.80;99.90;;;;;;5007224;28;20168;-83
2022/11/23 10:35:56;;;;;;;8.50;1.20;;;12.00;99.90;;;;;;4993499;28;20033;-85
2022/11/23 10:38:24;;;;;;;4.18;1.10;;;11.80;99.90;;;;;;4984468;28;20033;-84
2022/11/23 10:40:55;;;;;;;5.78;0.98;;;11.90;99.90;;;;;;4984778;28;20072;-85
2022/11/23 10:43:23;;;;;;;4.43;1.73;;;12.00;99.90;;;;;;5005986;28;20029;-85
2022/11/23 10:46:28;;;;;;;4.05;1.45;;;11.90;99.90;;;;;;4984555;28;20036;-85
2022/11/23 10:48:53;;;;;;;9.02;1.50;;;12.10;99.90;;;;;;5012578;28;20493;-85
2022/11/23 10:51:50;;;;;;;9.73;1.60;;;12.00;99.90;;;;;;4985895;28;20040;-85
2022/11/23 10:54:20;;;;;;;6.90;1.33;;;12.10;99.90;;;;;;5025754;28;20597;-85
2022/11/23 10:56:49;;;;;;;3.88;1.00;;;12.40;99.90;;;;;;4990527;28;20540;-85
2022/11/23 10:59:35;;;;;;;18.27;1.88;;;12.30;99.90;;;;;;5023733;28;20466;-86
2022/11/23 11:02:03;;;;;;;;;;;12.20;99.90;;;;;;4992813;28;20034;-85
2022/11/23 11:04:29;;;;;;;6.28;1.45;;;12.30;99.90;;;;;;5015078;28;19913;-85
2022/11/23 11:07:16;;;;;;;12.70;1.50;;;12.30;99.90;;;;;;4997279;28;20113;-85
2022/11/23 11:09:42;;;;;;;9.63;1.55;;;12.30;99.90;;;;;;5000042;28;20036;-85
2022/11/23 11:12:15;;;;;;;7.03;1.42;;;12.60;99.90;;;;;;4996871;28;20029;-85
2022/11/23 11:15:09;;;;;;;9.38;1.25;;;12.40;99.90;;;;;;4980237;28;20034;-85
2022/11/23 11:17:35;;;;;;;11.88;1.80;;;12.80;99.90;;;;;;5010066;28;20038;-85
2022/11/23 11:20:21;;;;;;;4.68;1.55;;;12.80;99.90;;;;;;5001916;28;20107;-85
2022/11/23 11:22:46;;;;;;;6.78;1.60;;;12.80;99.90;;;;;;5015073;28;20030;-85
2022/11/23 11:25:30;;;;;;;6.75;1.17;;;12.80;99.90;;;;;;4998919;28;20080;-85
2022/11/23 11:27:56;;;;;;;7.72;1.55;;;12.70;99.90;;;;;;4996012;28;20030;-85
2022/11/23 11:30:22;;;;;;;10.52;1.40;;;12.90;99.90;;;;;;5001526;28;20037;-85
2022/11/23 11:33:23;;;;;;;8.43;1.63;;;13.10;99.90;;;;;;4996647;28;20041;-86
2022/11/23 11:35:50;;;;;;;5.78;1.70;;;13.20;99.90;;;;;;5002901;28;20478;-85
2022/11/23 11:38:15;;;;;;;5.30;1.00;;;13.30;99.90;;;;;;4967673;28;20548;-85
2022/11/23 11:40:48;;;;;;;9.02;1.55;;;13.40;99.90;;;;;;4998181;28;20034;-86
2022/11/23 11:43:19;;;;;;;7.50;1.33;;;13.20;99.90;;;;;;4985096;28;20394;-85
2022/11/23 11:45:47;;;;;;;9.05;1.73;;;13.10;99.90;;;;;;4990286;28;20076;-86
2022/11/23 11:48:17;;;;;;;5.03;1.10;;;13.00;99.90;;;;;;4982699;28;20386;-85
2022/11/23 11:51:05;;;;;;;6.95;1.00;;;13.40;99.90;;;;;;4975995;28;20033;-86
2022/11/23 11:54:08;;;;;;;8.77;1.55;;;13.40;99.90;;;;;;4992581;28;20449;-85
2022/11/23 11:56:44;;;;;;;7.07;1.98;;;13.40;99.90;;;;;;4947182;28;20026;-85
2022/11/23 11:59:28;;;;;;;8.27;1.25;;;13.60;99.90;;;;;;4995850;28;20037;-85
2022/11/23 12:02:02;;;;;;;4.22;1.30;;;13.40;99.90;;;;;;5017672;28;20034;-86
2022/11/23 12:04:47;;;;;;;3.30;0.77;;;13.40;99.90;;;;;;4991877;28;20048;-85
2022/11/23 12:07:17;;;;;;;4.63;1.10;;;13.70;99.90;;;;;;4972631;28;20058;-85
2022/11/23 12:10:02;;;;;;;6.80;1.90;;;13.40;99.90;;;;;;4973528;28;20055;-86
2022/11/23 12:12:27;;;;;;;12.70;1.60;;;13.50;99.90;;;;;;4969183;28;20101;-86
2022/11/23 12:14:53;;;;;;;7.30;2.35;;;13.50;99.90;;;;;;4964140;28;20457;-86
2022/11/23 12:17:35;;;;;;;5.65;1.23;;;13.50;99.90;;;;;;4987136;28;20030;-86
2022/11/23 12:20:16;;;;;;;5.88;1.35;;;13.80;99.90;;;;;;4970000;28;20046;-85
2022/11/23 12:22:49;;;;;;;7.93;1.25;;;13.70;99.90;;;;;;4968538;28;20497;-86
2022/11/23 12:25:31;;;;;;;4.20;1.15;;;13.30;99.90;;;;;;4987621;28;20546;-86
2022/11/23 12:28:18;;;;;;;10.85;1.58;;;13.10;99.90;;;;;;5000973;28;20026;-85
2022/11/23 12:31:02;;;;;;;6.55;1.73;;;13.10;99.90;;;;;;5010459;28;20026;-85
2022/11/23 12:33:59;;;;;;;5.30;0.98;;;13.10;99.90;;;;;;5024588;28;20410;-86
2022/11/23 12:36:42;;;;;;;8.43;1.48;;;13.20;99.90;;;;;;5001605;28;20029;-85
2022/11/23 12:39:50;;;;;;;10.65;1.73;;;13.10;99.90;;;;;;5014052;28;20041;-85
2022/11/23 12:42:25;;;;;;;6.20;1.45;;;12.60;99.90;;;;;;5011373;28;20125;-84
2022/11/23 12:45:00;;;;;;;7.43;1.42;;;12.70;99.90;;;;;;4969067;28;20401;-86
2022/11/23 12:47:59;;;;;;;8.00;1.30;;;12.80;99.90;;;;;;5001275;28;20030;-86
2022/11/23 12:50:53;;;;;;;8.02;1.20;;;12.90;99.90;;;;;;4989918;28;20490;-86
2022/11/23 12:53:53;;;;;;;8.18;1.40;;;12.80;99.90;;;;;;4973124;28;20026;-85
2022/11/23 12:56:50;;;;;;;7.65;1.40;;;12.70;99.90;;;;;;4977960;28;20407;-85
2022/11/23 12:59:16;;;;;;;5.20;1.58;;;12.80;99.90;;;;;;4988873;28;20125;-86
2022/11/23 13:01:45;;;;;;;5.25;1.23;;;12.80;99.90;;;;;;5006758;28;20033;-85
2022/11/23 13:07:39;;;;;;;6.85;1.27;;;12.70;99.90;;;;;;5017707;28;20037;-85
2022/11/23 13:10:25;;;;;;;12.25;2.00;;;12.50;99.90;;;;;;5011358;28;20453;-85
2022/11/23 13:13:14;;;;;;;5.22;1.40;;;12.80;99.90;;;;;;5002788;28;20042;-85
2022/11/23 13:16:15;;;;;;;5.50;1.10;;;12.70;99.90;;;;;;5002042;28;20034;-85
2022/11/23 13:18:55;;;;;;;7.30;2.08;;;12.70;99.90;;;;;;5021626;28;20069;-85
2022/11/23 13:21:28;;;;;;;3.42;0.90;;;12.70;99.90;;;;;;5010179;28;20034;-85
2022/11/23 13:24:00;;;;;;;8.43;1.23;;;12.60;99.90;;;;;;4999489;28;20038;-84
2022/11/23 13:26:32;;;;;;;6.07;1.15;;;12.60;99.90;;;;;;4974542;28;20036;-85
2022/11/23 13:29:04;;;;;;;5.45;1.35;;;12.50;99.90;;;;;;4970550;28;20030;-85
2022/11/23 13:31:30;;;;;;;6.75;1.50;;;12.60;99.90;;;;;;4975621;28;20038;-85